Amherst, New York
Current Conditions -  °F | °C
As of 10:54 AM on Sunday 21 Dec 2014 (Local Time) from KBUF Reporting Station
Scattered Clouds Scattered Clouds  
Wind Chill: 32°   Ceiling: Unl
Heat Index: 32°   Visibility: 10mi
Dew Point: 22°   Wind: 3mph
Humidity: 66%   Direction: 270°W
Pressure: 30.31"   Gusts: NA
Location:  43.0271°N, 78.7597°W
Report Text: KBUF 211554Z 27003KT 10SM FEW031 SCT065 SCT130 00/M06 A3031 RMK AO2 SLP273 T00001056
Loading
Personal Weather Stations






























Interactive Weather Map New forecast layout! Learn more

10-Day Weather Forecast

Advertisements
Track Severe Weather on mobile